Time;durP1;ratioP1;P1;durP2;ratioP2;P2;SDS_P1;SDS_P2;PMS_P1;PMS_P2;Temp;Humidity;BMP_temperature;BMP_pressure;BME280_temperature;BME280_humidity;BME280_pressure;Samples;Min_cycle;Max_cycle;Signal;HPM_P1;HPM_P2
2023/05/01 00:00:01;;;;;;;;;;;9.20;99.90;;;;;;5036708;28;19921;-66
2023/05/01 00:02:27;;;;;;;;;;;9.30;99.90;;;;;;5046634;28;19925;-65
2023/05/01 00:04:52;;;;;;;;;;;9.20;99.90;;;;;;5052051;28;19928;-66
2023/05/01 00:07:17;;;;;;;;;;;9.20;99.90;;;;;;5054320;28;19924;-67
2023/05/01 00:09:43;;;;;;;;;;;9.20;99.90;;;;;;5048905;28;19921;-66
2023/05/01 00:12:09;;;;;;;;;;;9.20;99.90;;;;;;5045897;28;20440;-66
2023/05/01 00:14:35;;;;;;;;;;;9.10;99.90;;;;;;5053094;28;19970;-66
2023/05/01 00:17:00;;;;;;;;;;;9.00;99.90;;;;;;5046747;28;19929;-66
2023/05/01 00:19:26;;;;;;;;;;;8.90;99.90;;;;;;5047389;28;19925;-66
2023/05/01 00:21:52;;;;;;;;;;;8.70;99.90;;;;;;5054011;28;19924;-66
2023/05/01 00:24:17;;;;;;;;;;;8.40;99.90;;;;;;5052677;28;19927;-66
2023/05/01 00:26:43;;;;;;;;;;;8.10;99.90;;;;;;5045915;28;19925;-66
2023/05/01 00:29:09;;;;;;;;;;;7.90;99.90;;;;;;5052428;28;19932;-66
2023/05/01 00:31:35;;;;;;;;;;;7.80;99.90;;;;;;5054152;28;19921;-66
2023/05/01 00:34:00;;;;;;;;;;;7.70;99.90;;;;;;5043514;28;19921;-66
2023/05/01 00:36:26;;;;;;;;;;;7.60;99.90;;;;;;5047759;28;19932;-66
2023/05/01 00:38:52;;;;;;;;;;;7.40;99.90;;;;;;5053272;28;20054;-66
2023/05/01 00:41:17;;;;;;;;;;;7.30;99.90;;;;;;5053646;28;19928;-66
2023/05/01 00:43:43;;;;;;;;;;;7.20;99.90;;;;;;5043330;28;20295;-67
2023/05/01 00:46:08;;;;;;;;;;;7.20;99.90;;;;;;5048232;28;19921;-66
2023/05/01 00:48:34;;;;;;;;;;;7.30;99.90;;;;;;5048540;28;19943;-66
2023/05/01 00:51:00;;;;;;;;;;;7.30;99.90;;;;;;5046295;28;19928;-66
2023/05/01 00:53:27;;;;;;;;;;;7.40;99.90;;;;;;5046904;28;19921;-66
2023/05/01 00:55:54;;;;;;;;;;;7.40;99.90;;;;;;5050856;28;19920;-66
2023/05/01 00:58:20;;;;;;;;;;;7.30;99.90;;;;;;5050364;28;19925;-67
2023/05/01 01:00:46;;;;;;;;;;;7.20;99.90;;;;;;5049004;28;19920;-67
2023/05/01 01:03:11;;;;;;;;;;;7.20;99.90;;;;;;5047782;28;19947;-66
2023/05/01 01:05:41;;;;;;;;;;;7.20;99.90;;;;;;5033435;28;19921;-66
2023/05/01 01:08:15;;;;;;;;;;;7.00;99.90;;;;;;5032294;28;20374;-66
2023/05/01 01:10:53;;;;;;;;;;;6.90;99.90;;;;;;5049978;28;19924;-67
2023/05/01 01:13:21;;;;;;;;;;;6.70;99.90;;;;;;5033483;28;19921;-66
2023/05/01 01:15:52;;;;;;;;;;;6.70;99.90;;;;;;5032263;28;20506;-66
2023/05/01 01:18:20;;;;;;;;;;;6.70;99.90;;;;;;5051681;28;20012;-66
2023/05/01 01:20:54;;;;;;;;;;;6.80;99.90;;;;;;5052479;28;19921;-67
2023/05/01 01:23:38;;;;;;;;;;;6.80;99.90;;;;;;5049938;28;20075;-66
2023/05/01 01:26:10;;;;;;;;;;;6.90;99.90;;;;;;5048822;28;19935;-66
2023/05/01 01:28:54;;;;;;;;;;;6.90;99.90;;;;;;5051070;28;19921;-66
2023/05/01 01:31:28;;;;;;;;;;;6.90;99.90;;;;;;5048681;28;19925;-66
2023/05/01 01:34:00;;;;;;;;;;;6.90;99.90;;;;;;5044796;28;19921;-66
2023/05/01 01:36:44;;;;;;;;;;;6.80;99.90;;;;;;5052459;28;19921;-66
2023/05/01 01:39:13;;;;;;;;;;;6.80;99.90;;;;;;5052364;28;19974;-66
2023/05/01 01:41:40;;;;;;;;;;;6.70;99.90;;;;;;5040206;28;19929;-67
2023/05/01 01:44:09;;;;;;;;;;;6.70;99.90;;;;;;5051495;28;19928;-66
2023/05/01 01:46:36;;;;;;;;;;;6.60;99.90;;;;;;5052760;28;19920;-66
2023/05/01 01:49:05;;;;;;;;;;;6.50;99.90;;;;;;5045231;28;19928;-66
2023/05/01 01:51:30;;;;;;;;;;;6.50;99.90;;;;;;5050170;28;20010;-66
2023/05/01 01:53:57;;;;;;;;;;;6.50;99.90;;;;;;5044476;28;20398;-66
2023/05/01 01:56:24;;;;;;;;;;;6.50;99.90;;;;;;5048574;28;20027;-67
2023/05/01 01:58:51;;;;;;;;;;;6.50;99.90;;;;;;5038340;28;19925;-67
2023/05/01 02:01:17;;;;;;;;;;;6.40;99.90;;;;;;5051763;28;20446;-67
2023/05/01 02:03:44;;;;;;;;;;;6.40;99.90;;;;;;5052916;28;19971;-68
2023/05/01 02:06:11;;;;;;;;;;;6.40;99.90;;;;;;5049642;28;19920;-67
2023/05/01 02:08:37;;;;;;;;;;;6.30;99.90;;;;;;5042574;28;19929;-67
2023/05/01 02:11:03;;;;;;;;;;;6.40;99.90;;;;;;5051229;28;20348;-67
2023/05/01 02:13:30;;;;;;;;;;;6.30;99.90;;;;;;5047436;28;19920;-67
2023/05/01 02:15:57;;;;;;;;;;;6.40;99.90;;;;;;5038481;28;19925;-68
2023/05/01 02:18:23;;;;;;;;;;;6.30;99.90;;;;;;5050322;28;19932;-67
2023/05/01 02:20:49;;;;;;;;;;;6.30;99.90;;;;;;5051004;28;19963;-67
2023/05/01 02:23:15;;;;;;;;;;;6.30;99.90;;;;;;5037837;28;19928;-67
2023/05/01 02:25:42;;;;;;;;;;;6.20;99.90;;;;;;5048807;28;19924;-67
2023/05/01 02:28:11;;;;;;;;;;;6.20;99.90;;;;;;5051608;28;19921;-68
2023/05/01 02:30:37;;;;;;;;;;;6.30;99.90;;;;;;5048567;28;20023;-67
2023/05/01 02:33:05;;;;;;;;;;;6.50;99.90;;;;;;5042892;28;20371;-67
2023/05/01 02:35:30;;;;;;;;;;;6.70;99.90;;;;;;5050361;28;19921;-67
2023/05/01 02:37:56;;;;;;;;;;;6.70;99.90;;;;;;5054106;28;20301;-67
2023/05/01 02:40:21;;;;;;;;;;;6.60;99.90;;;;;;5052182;28;19921;-67
2023/05/01 02:42:48;;;;;;;;;;;6.50;99.90;;;;;;5055188;28;20396;-67
2023/05/01 02:45:18;;;;;;;;;;;6.30;99.90;;;;;;5055903;28;20007;-68
2023/05/01 02:47:44;;;;;;;;;;;6.00;99.90;;;;;;5040732;28;19921;-66
2023/05/01 02:50:12;;;;;;;;;;;5.80;99.90;;;;;;5052943;28;20400;-67
2023/05/01 02:52:37;;;;;;;;;;;5.70;99.90;;;;;;5047270;28;19928;-67
2023/05/01 02:55:04;;;;;;;;;;;5.70;99.90;;;;;;5034441;28;19920;-66
2023/05/01 02:57:31;;;;;;;;;;;5.60;99.90;;;;;;5040375;28;20378;-67
2023/05/01 02:59:56;;;;;;;;;;;5.40;99.90;;;;;;5049837;28;20034;-68
2023/05/01 03:02:22;;;;;;;;;;;5.30;99.90;;;;;;5055450;28;19921;-68
2023/05/01 03:04:47;;;;;;;;;;;5.30;99.90;;;;;;5040528;28;20384;-67
2023/05/01 03:07:13;;;;;;;;;;;5.20;99.90;;;;;;5039384;28;19931;-66
2023/05/01 03:09:39;;;;;;;;;;;5.20;99.90;;;;;;5050991;28;19966;-67
2023/05/01 03:12:04;;;;;;;;;;;5.10;99.90;;;;;;5045789;28;20047;-67
2023/05/01 03:14:30;;;;;;;;;;;5.20;99.90;;;;;;5046338;28;19967;-68
2023/05/01 03:16:55;;;;;;;;;;;5.40;99.90;;;;;;5053133;28;19921;-67
2023/05/01 03:19:21;;;;;;;;;;;5.70;99.90;;;;;;5054889;28;20008;-68
2023/05/01 03:21:46;;;;;;;;;;;5.90;99.90;;;;;;5045313;28;19978;-67
2023/05/01 03:24:12;;;;;;;;;;;6.10;99.90;;;;;;5041879;28;19967;-67
2023/05/01 03:26:37;;;;;;;;;;;6.20;99.90;;;;;;5050797;28;19927;-68
2023/05/01 03:29:03;;;;;;;;;;;6.40;99.90;;;;;;5043628;28;19928;-68
2023/05/01 03:31:28;;;;;;;;;;;6.40;99.90;;;;;;5051656;28;19921;-68
2023/05/01 03:33:54;;;;;;;;;;;6.40;99.90;;;;;;5036566;28;19928;-68
2023/05/01 03:36:21;;;;;;;;;;;6.30;99.90;;;;;;5029572;28;20380;-67
2023/05/01 03:38:46;;;;;;;;;;;6.20;99.90;;;;;;5045886;28;20376;-68
2023/05/01 03:41:12;;;;;;;;;;;6.00;99.90;;;;;;5045218;28;20009;-68
2023/05/01 03:43:37;;;;;;;;;;;6.10;99.90;;;;;;5054868;28;19921;-68
2023/05/01 03:46:03;;;;;;;;;;;6.20;99.90;;;;;;5037306;28;20002;-68
2023/05/01 03:48:28;;;;;;;;;;;6.00;99.90;;;;;;5033562;28;20290;-67
2023/05/01 03:50:54;;;;;;;;;;;5.90;99.90;;;;;;5051373;28;19967;-68
2023/05/01 03:53:19;;;;;;;;;;;5.80;99.90;;;;;;5041287;28;19929;-68
2023/05/01 03:55:45;;;;;;;;;;;5.70;99.90;;;;;;5046639;28;19921;-68
2023/05/01 03:58:10;;;;;;;;;;;5.60;99.90;;;;;;5053974;28;19925;-67
2023/05/01 04:00:36;;;;;;;;;;;5.60;99.90;;;;;;5054391;28;19989;-68
2023/05/01 04:03:02;;;;;;;;;;;5.50;99.90;;;;;;5051046;28;20337;-68
2023/05/01 04:05:28;;;;;;;;;;;5.50;99.90;;;;;;5037123;28;19943;-68
2023/05/01 04:07:54;;;;;;;;;;;5.50;99.90;;;;;;5043393;28;20346;-68
2023/05/01 04:10:19;;;;;;;;;;;5.50;99.90;;;;;;5045101;28;20279;-67
2023/05/01 04:12:44;;;;;;;;;;;5.60;99.90;;;;;;5050053;28;19921;-67
2023/05/01 04:15:10;;;;;;;;;;;5.60;99.90;;;;;;5054330;28;20371;-67
2023/05/01 04:17:36;;;;;;;;;;;5.70;99.90;;;;;;5053866;28;19932;-68
2023/05/01 04:20:03;;;;;;;;;;;5.70;99.90;;;;;;5045737;28;20295;-66
2023/05/01 04:22:29;;;;;;;;;;;5.80;99.90;;;;;;5043830;28;19928;-67
2023/05/01 04:24:54;;;;;;;;;;;5.80;99.90;;;;;;5051644;28;19920;-68
2023/05/01 04:27:20;;;;;;;;;;;5.90;99.90;;;;;;5048386;28;19974;-68
2023/05/01 04:29:45;;;;;;;;;;;6.00;99.90;;;;;;5041331;28;19928;-68
2023/05/01 04:32:11;;;;;;;;;;;6.00;99.90;;;;;;5045191;28;19921;-68
2023/05/01 04:34:36;;;;;;;;;;;6.10;99.90;;;;;;5053057;28;19924;-67
2023/05/01 04:37:02;;;;;;;;;;;6.20;99.90;;;;;;5047817;28;19967;-67
2023/05/01 04:39:28;;;;;;;;;;;6.30;99.90;;;;;;5046298;28;19921;-68
2023/05/01 04:41:53;;;;;;;;;;;6.30;99.90;;;;;;5042311;28;19928;-68
2023/05/01 04:44:19;;;;;;;;;;;6.40;99.90;;;;;;5042370;28;19921;-68
2023/05/01 04:46:45;;;;;;;;;;;6.40;99.90;;;;;;5047946;28;20015;-67
2023/05/01 04:49:10;;;;;;;;;;;6.30;99.90;;;;;;5051415;28;19921;-68
2023/05/01 04:51:36;;;;;;;;;;;6.40;99.90;;;;;;5045015;28;20015;-68
2023/05/01 04:54:03;;;;;;;;;;;6.60;99.90;;;;;;5045141;28;19920;-66
2023/05/01 04:56:29;;;;;;;;;;;6.80;99.90;;;;;;5053465;28;20397;-67
2023/05/01 04:58:54;;;;;;;;;;;6.90;99.90;;;;;;5038032;28;19925;-66
2023/05/01 05:01:19;;;;;;;;;;;7.00;99.90;;;;;;5025234;28;19921;-67
2023/05/01 05:03:45;;;;;;;;;;;7.10;99.90;;;;;;5042266;28;19994;-66
2023/05/01 05:06:10;;;;;;;;;;;7.20;99.90;;;;;;5042719;28;19978;-66
2023/05/01 05:08:36;;;;;;;;;;;7.30;99.90;;;;;;5034407;28;20327;-66
2023/05/01 05:11:01;;;;;;;;;;;7.40;99.90;;;;;;5049899;28;19959;-66
2023/05/01 05:13:27;;;;;;;;;;;7.40;99.90;;;;;;5039098;28;19925;-67
2023/05/01 05:15:53;;;;;;;;;;;7.50;99.90;;;;;;5050437;28;19921;-66
2023/05/01 05:18:18;;;;;;;;;;;7.60;99.90;;;;;;5045990;28;19932;-66
2023/05/01 05:20:44;;;;;;;;;;;7.60;99.90;;;;;;5049250;28;19921;-67
2023/05/01 05:23:09;;;;;;;;;;;7.70;99.90;;;;;;5032902;28;19968;-67
2023/05/01 05:25:35;;;;;;;;;;;7.80;99.90;;;;;;5029686;28;19920;-66
2023/05/01 05:28:00;;;;;;;;;;;7.90;99.90;;;;;;5038361;28;19928;-66
2023/05/01 05:30:26;;;;;;;;;;;7.90;99.90;;;;;;5045351;28;20438;-67
2023/05/01 05:32:52;;;;;;;;;;;8.00;99.90;;;;;;5032459;28;19960;-66
2023/05/01 05:35:17;;;;;;;;;;;8.10;99.90;;;;;;5035778;28;19956;-66
2023/05/01 05:37:43;;;;;;;;;;;8.20;99.90;;;;;;5040227;28;19925;-66
2023/05/01 05:40:09;;;;;;;;;;;8.30;99.90;;;;;;5052625;28;20335;-66
2023/05/01 05:42:34;;;;;;;;;;;8.40;99.90;;;;;;5048174;28;19928;-66
2023/05/01 05:45:00;;;;;;;;;;;8.50;99.90;;;;;;5049067;28;19921;-66
2023/05/01 05:47:25;;;;;;;;;;;8.60;99.90;;;;;;5051512;28;19921;-66
2023/05/01 05:49:51;;;;;;;;;;;8.70;99.90;;;;;;5049841;28;19927;-66
2023/05/01 05:52:16;;;;;;;;;;;8.70;99.90;;;;;;5036737;28;19931;-66
2023/05/01 05:54:42;;;;;;;;;;;8.80;99.90;;;;;;5052195;28;19924;-66
2023/05/01 05:57:07;;;;;;;;;;;8.80;99.90;;;;;;5042581;28;19924;-67
2023/05/01 05:59:34;;;;;;;;;;;8.90;99.90;;;;;;5048691;28;19956;-66
2023/05/01 06:01:59;;;;;;;;;;;8.90;99.90;;;;;;5031530;28;19927;-66
2023/05/01 06:04:25;;;;;;;;;;;9.00;99.90;;;;;;5042810;28;19928;-67
2023/05/01 06:06:50;;;;;;;;;;;9.10;99.90;;;;;;5041038;28;19921;-66
2023/05/01 06:09:17;;;;;;;;;;;9.20;99.90;;;;;;5041841;28;19924;-67
2023/05/01 06:11:44;;;;;;;;;;;9.20;99.90;;;;;;5050799;28;20019;-66
2023/05/01 06:14:09;;;;;;;;;;;9.30;99.90;;;;;;5031953;28;19960;-67
2023/05/01 06:16:35;;;;;;;;;;;9.40;99.90;;;;;;5039394;28;19965;-67
2023/05/01 06:19:01;;;;;;;;;;;9.50;99.90;;;;;;5048217;28;19935;-66
2023/05/01 06:21:26;;;;;;;;;;;9.60;99.90;;;;;;5038762;28;20471;-66
2023/05/01 06:23:52;;;;;;;;;;;9.70;99.90;;;;;;5041457;28;19921;-68
2023/05/01 06:26:17;;;;;;;;;;;9.80;99.90;;;;;;5033323;28;20029;-68
2023/05/01 06:28:43;;;;;;;;;;;10.00;99.90;;;;;;5043267;28;20294;-67
2023/05/01 06:31:08;;;;;;;;;;;10.10;99.90;;;;;;5035561;28;19927;-66
2023/05/01 06:33:34;;;;;;;;;;;10.20;99.90;;;;;;5040197;28;20378;-67
2023/05/01 06:35:59;;;;;;;;;;;10.30;99.90;;;;;;5051531;28;19921;-66
2023/05/01 06:38:25;;;;;;;;;;;10.50;99.90;;;;;;5051162;28;20386;-66
2023/05/01 06:40:51;;;;;;;;;;;10.60;99.90;;;;;;5040393;28;20272;-67
2023/05/01 06:43:16;;;;;;;;;;;10.80;99.90;;;;;;5035297;28;19931;-66
2023/05/01 06:45:42;;;;;;;;;;;10.90;99.90;;;;;;5051112;28;19921;-67
2023/05/01 06:48:07;;;;;;;;;;;10.90;99.90;;;;;;5051415;28;19932;-66
2023/05/01 06:50:33;;;;;;;;;;;11.00;99.90;;;;;;5033942;28;19943;-67
2023/05/01 06:52:59;;;;;;;;;;;11.00;99.90;;;;;;5039817;28;20379;-66
2023/05/01 06:55:25;;;;;;;;;;;11.10;99.90;;;;;;5049029;28;19921;-66
2023/05/01 06:57:51;;;;;;;;;;;11.20;99.90;;;;;;5040671;28;20303;-66
2023/05/01 07:00:17;;;;;;;;;;;11.20;99.90;;;;;;5048081;28;20011;-67
2023/05/01 07:02:45;;;;;;;;;;;11.20;99.90;;;;;;5049757;28;19925;-66
2023/05/01 07:05:11;;;;;;;;;;;11.30;99.90;;;;;;5051721;28;19921;-67
2023/05/01 07:07:36;;;;;;;;;;;11.40;99.90;;;;;;5019993;28;19939;-66
2023/05/01 07:10:02;;;;;;;;;;;11.50;99.90;;;;;;5029717;28;20291;-66
2023/05/01 07:12:28;;;;;;;;;;;11.50;99.90;;;;;;5042970;28;20275;-66
2023/05/01 07:14:55;;;;;;;;;;;11.60;99.90;;;;;;5028910;28;19921;-68
2023/05/01 07:17:21;;;;;;;;;;;11.60;99.90;;;;;;5044029;28;20646;-68
2023/05/01 07:19:46;;;;;;;;;;;11.70;99.90;;;;;;5036315;28;19956;-68
2023/05/01 07:22:12;;;;;;;;;;;11.70;99.90;;;;;;5045777;28;19920;-68
2023/05/01 07:24:37;;;;;;;;;;;11.90;99.90;;;;;;5039027;28;19921;-67
2023/05/01 07:27:03;;;;;;;;;;;11.90;99.90;;;;;;5034150;28;19921;-68
2023/05/01 07:29:28;;;;;;;;;;;12.00;99.90;;;;;;5038566;28;20401;-68
2023/05/01 07:31:54;;;;;;;;;;;12.00;99.90;;;;;;5035416;28;19975;-67
2023/05/01 07:34:20;;;;;;;;;;;12.00;99.90;;;;;;5047451;28;19920;-68
2023/05/01 07:36:45;;;;;;;;;;;12.10;99.90;;;;;;5054718;28;19924;-68
2023/05/01 07:39:12;;;;;;;;;;;12.20;99.90;;;;;;5041335;28;19933;-68
2023/05/01 07:41:38;;;;;;;;;;;12.30;99.90;;;;;;5034791;28;19925;-68
2023/05/01 07:44:03;;;;;;;;;;;12.40;99.90;;;;;;5039382;28;19943;-68
2023/05/01 07:46:29;;;;;;;;;;;12.50;99.90;;;;;;5037624;28;20283;-68
2023/05/01 07:48:54;;;;;;;;;;;12.50;99.90;;;;;;5038025;28;19974;-67
2023/05/01 07:51:20;;;;;;;;;;;12.50;99.90;;;;;;5047436;28;19920;-68
2023/05/01 07:53:46;;;;;;;;;;;12.60;99.90;;;;;;5037548;28;19967;-68
2023/05/01 07:56:12;;;;;;;;;;;12.60;99.90;;;;;;5029278;28;19968;-68
2023/05/01 07:58:39;;;;;;;;;;;12.80;99.90;;;;;;5037874;28;19983;-68
2023/05/01 08:01:05;;;;;;;;;;;12.90;99.90;;;;;;5052671;28;20307;-67
2023/05/01 08:03:31;;;;;;;;;;;12.90;99.90;;;;;;5070925;22;19936;-67
2023/05/01 08:05:57;;;;;;;;;;;13.00;99.90;;;;;;5042959;28;19994;-69
2023/05/01 08:08:22;;;;;;;;;;;13.00;99.90;;;;;;5065795;28;20351;-66
2023/05/01 08:10:48;;;;;;;;;;;13.10;99.90;;;;;;5073466;28;20347;-66
2023/05/01 08:13:13;;;;;;;;;;;13.20;99.90;;;;;;5056230;28;19920;-67
2023/05/01 08:15:41;;;;;;;;;;;13.30;99.90;;;;;;5054253;28;19949;-66
2023/05/01 08:18:10;;;;;;;;;;;13.40;99.90;;;;;;5049434;28;20114;-66
2023/05/01 08:20:35;;;;;;;;;;;13.40;99.90;;;;;;5054349;28;20023;-67
2023/05/01 08:23:01;;;;;;;;;;;13.40;99.90;;;;;;5053208;28;20351;-66
2023/05/01 08:25:26;;;;;;;;;;;13.50;99.90;;;;;;5050998;28;19990;-67
2023/05/01 08:27:52;;;;;;;;;;;13.60;99.90;;;;;;5052204;28;19921;-67
2023/05/01 08:30:17;;;;;;;;;;;13.80;99.90;;;;;;5051694;28;19932;-67
2023/05/01 08:32:43;;;;;;;;;;;13.70;99.90;;;;;;5051948;28;19975;-66
2023/05/01 08:35:08;;;;;;;;;;;13.80;99.90;;;;;;5048280;28;19922;-68
2023/05/01 08:37:34;;;;;;;;;;;13.90;99.90;;;;;;5054352;28;19945;-69
2023/05/01 08:40:02;;;;;;;;;;;13.90;99.90;;;;;;5061988;28;19977;-68
2023/05/01 08:42:27;;;;;;;;;;;14.10;99.90;;;;;;5064497;28;19921;-65
2023/05/01 08:44:58;;;;;;;;;;;14.20;99.90;;;;;;5035351;28;19928;-69
2023/05/01 08:47:24;;;;;;;;;;;14.30;99.90;;;;;;5052748;28;19924;-69
2023/05/01 08:49:50;;;;;;;;;;;14.40;99.90;;;;;;5050571;28;19943;-68
2023/05/01 08:52:15;;;;;;;;;;;14.40;99.90;;;;;;5056601;28;19999;-69
2023/05/01 08:54:43;;;;;;;;;;;14.40;99.90;;;;;;5061374;28;19924;-68
2023/05/01 08:57:09;;;;;;;;;;;14.40;99.90;;;;;;5056340;28;19920;-67
2023/05/01 08:59:35;;;;;;;;;;;14.40;99.90;;;;;;5050036;28;19925;-68
2023/05/01 09:02:03;;;;;;;;;;;14.40;99.90;;;;;;5052768;28;19921;-68
2023/05/01 09:04:31;;;;;;;;;;;14.50;99.90;;;;;;5049793;28;20366;-68
2023/05/01 09:07:00;;;;;;;;;;;14.50;99.90;;;;;;5052645;28;19921;-68
2023/05/01 09:09:26;;;;;;;;;;;14.50;99.90;;;;;;5052329;28;19960;-68
2023/05/01 09:11:59;;;;;;;;;;;14.40;99.90;;;;;;5039364;28;20389;-67
2023/05/01 09:14:25;;;;;;;;;;;14.60;99.90;;;;;;5052287;28;20309;-67
2023/05/01 09:16:50;;;;;;;;;;;14.70;99.90;;;;;;5053040;28;19921;-66
2023/05/01 09:19:16;;;;;;;;;;;14.80;99.90;;;;;;5048446;28;19920;-67
2023/05/01 09:21:41;;;;;;;;;;;14.90;99.90;;;;;;5061480;28;19929;-67
2023/05/01 09:24:07;;;;;;;;;;;15.00;99.90;;;;;;5052535;28;19934;-67
2023/05/01 09:26:35;;;;;;;;;;;15.00;99.90;;;;;;5030566;28;19932;-69
2023/05/01 09:29:01;;;;;;;;;;;15.10;99.90;;;;;;5051941;28;19920;-70
2023/05/01 09:31:27;;;;;;;;;;;15.20;99.90;;;;;;5034645;28;20302;-68
2023/05/01 09:34:00;;;;;;;;;;;15.30;99.90;;;;;;5054135;28;20349;-68
2023/05/01 09:36:44;;;;;;;;;;;15.40;99.90;;;;;;5052226;28;20195;-69
2023/05/01 09:39:21;;;;;;;;;;;15.50;99.90;;;;;;5051285;28;19927;-68
2023/05/01 09:41:50;;;;;;;;;;;15.70;99.90;;;;;;5052246;28;20016;-66
2023/05/01 09:44:18;;;;;;;;;;;15.80;99.90;;;;;;5050728;28;19983;-67
2023/05/01 09:46:44;;;;;;;;;;;16.00;99.90;;;;;;5052726;28;20375;-68
2023/05/01 09:49:10;;;;;;;;;;;16.30;99.90;;;;;;5049972;28;19928;-67
2023/05/01 09:51:35;;;;;;;;;;;16.30;99.90;;;;;;5057925;28;19920;-67
2023/05/01 09:54:02;;;;;;;;;;;16.40;99.90;;;;;;5051153;28;19925;-67
2023/05/01 09:56:32;;;;;;;;;;;16.40;99.20;;;;;;5051617;28;20588;-66
2023/05/01 09:59:13;;;;;;;;;;;16.20;97.40;;;;;;5051429;28;19920;-67
2023/05/01 10:01:39;;;;;;;;;;;16.20;96.60;;;;;;5054698;28;20023;-67
2023/05/01 10:04:05;;;;;;;;;;;16.20;99.60;;;;;;5046732;28;19928;-67
2023/05/01 10:06:31;;;;;;;;;;;16.20;99.90;;;;;;5051719;28;20003;-66
2023/05/01 10:08:56;;;;;;;;;;;16.30;99.90;;;;;;5047960;28;19967;-68
2023/05/01 10:11:22;;;;;;;;;;;16.50;99.90;;;;;;5051163;28;19920;-67
2023/05/01 10:14:07;;;;;;;;;;;16.70;99.80;;;;;;5029744;28;20004;-66
2023/05/01 10:16:34;;;;;;;;;;;16.70;98.30;;;;;;5049563;28;19936;-69
2023/05/01 10:18:59;;;;;;;;;;;16.80;99.90;;;;;;5048349;28;20318;-68
2023/05/01 10:21:26;;;;;;;;;;;16.80;98.30;;;;;;5033678;28;20004;-67
2023/05/01 10:23:52;;;;;;;;;;;16.80;94.50;;;;;;5051696;28;20367;-68
2023/05/01 10:26:18;;;;;;;;;;;16.90;99.90;;;;;;5052419;28;19921;-68
2023/05/01 10:28:45;;;;;;;;;;;17.00;96.50;;;;;;5048398;28;20432;-68
2023/05/01 10:31:11;;;;;;;;;;;17.10;96.50;;;;;;5053415;28;20383;-68
2023/05/01 10:33:37;;;;;;;;;;;17.10;93.40;;;;;;5031122;28;19936;-66
2023/05/01 10:36:04;;;;;;;;;;;17.30;95.30;;;;;;5059399;28;19925;-66
2023/05/01 10:38:36;;;;;;;;;;;17.30;92.80;;;;;;5048757;28;19920;-68
2023/05/01 10:41:02;;;;;;;;;;;17.40;94.20;;;;;;5050599;28;19932;-67
2023/05/01 10:43:31;;;;;;;;;;;17.50;93.40;;;;;;5046880;28;19927;-67
2023/05/01 10:46:09;;;;;;;;;;;17.50;92.10;;;;;;5048377;28;19920;-67
2023/05/01 10:48:37;;;;;;;;;;;17.70;95.20;;;;;;5054996;28;19928;-67
2023/05/01 10:51:21;;;;;;;;;;;17.60;91.40;;;;;;5056437;28;19960;-68
2023/05/01 10:53:48;;;;;;;;;;;17.70;93.60;;;;;;5051011;28;19920;-68
2023/05/01 10:56:20;;;;;;;;;;;18.00;95.70;;;;;;5050570;28;19925;-69
2023/05/01 10:58:50;;;;;;;;;;;18.30;95.10;;;;;;5052765;28;19921;-68
2023/05/01 11:01:28;;;;;;;;;;;18.40;95.90;;;;;;5052035;28;19931;-69
2023/05/01 11:03:55;;;;;;;;;;;18.50;97.50;;;;;;5049398;28;19925;-69
2023/05/01 11:06:20;;;;;;;;;;;18.70;96.30;;;;;;5058718;28;19963;-66
2023/05/01 11:08:46;;;;;;;;;;;18.70;94.20;;;;;;5047073;28;20291;-68
2023/05/01 11:11:20;;;;;;;;;;;18.80;96.10;;;;;;5050974;28;20298;-68
2023/05/01 11:14:02;;;;;;;;;;;18.60;93.30;;;;;;5055294;28;19921;-69
2023/05/01 11:16:36;;;;;;;;;;;18.50;92.70;;;;;;5054823;28;19921;-68
2023/05/01 11:19:02;;;;;;;;;;;18.60;94.40;;;;;;5054901;28;20289;-68
2023/05/01 11:21:29;;;;;;;;;;;18.70;94.90;;;;;;5054318;28;19925;-68
2023/05/01 11:23:54;;;;;;;;;;;18.90;95.20;;;;;;5056259;28;20272;-68
2023/05/01 11:26:21;;;;;;;;;;;19.00;95.80;;;;;;5045224;28;19947;-67
2023/05/01 11:28:47;;;;;;;;;;;19.10;94.50;;;;;;5054876;28;19968;-67
2023/05/01 11:31:19;;;;;;;;;;;19.30;96.40;;;;;;5053439;28;19960;-68
2023/05/01 11:33:45;;;;;;;;;;;19.50;94.40;;;;;;5050406;28;19921;-68
2023/05/01 11:36:10;;;;;;;;;;;19.50;93.20;;;;;;5068651;28;20267;-68
2023/05/01 11:38:36;;;;;;;;;;;19.70;93.80;;;;;;5053891;28;20011;-68
2023/05/01 11:41:03;;;;;;;;;;;19.80;94.50;;;;;;5058518;28;20329;-67
2023/05/01 11:43:29;;;;;;;;;;;19.80;92.10;;;;;;5066335;28;19920;-68
2023/05/01 11:46:00;;;;;;;;;;;19.70;94.90;;;;;;5053868;28;19921;-68
2023/05/01 11:48:26;;;;;;;;;;;19.70;91.20;;;;;;5054658;28;20007;-67
2023/05/01 11:50:52;;;;;;;;;;;19.50;92.10;;;;;;5058139;28;19947;-68
2023/05/01 11:53:17;;;;;;;;;;;19.50;91.80;;;;;;5066667;28;20321;-67
2023/05/01 11:55:43;;;;;;;;;;;19.40;93.40;;;;;;5055883;28;19924;-65
2023/05/01 11:58:09;;;;;;;;;;;19.40;93.20;;;;;;5046795;28;19921;-66
2023/05/01 12:00:36;;;;;;;;;;;19.40;92.50;;;;;;5063895;28;19929;-65
2023/05/01 12:03:05;;;;;;;;;;;19.50;91.00;;;;;;5051615;28;19974;-66
2023/05/01 12:05:30;;;;;;;;;;;19.60;90.40;;;;;;5055238;28;19927;-65
2023/05/01 12:08:05;;;;;;;;;;;19.60;87.90;;;;;;5060951;28;19921;-65
2023/05/01 12:10:31;;;;;;;;;;;19.70;90.10;;;;;;5051488;28;19925;-65
2023/05/01 12:12:57;;;;;;;;;;;19.70;90.60;;;;;;5052153;28;20057;-65
2023/05/01 12:15:23;;;;;;;;;;;19.70;91.30;;;;;;5059401;28;19983;-66
2023/05/01 12:17:49;;;;;;;;;;;19.80;88.10;;;;;;5054594;28;19921;-65
2023/05/01 12:20:14;;;;;;;;;;;19.90;87.60;;;;;;5052684;28;19928;-65
2023/05/01 12:22:49;;;;;;;;;;;20.10;86.90;;;;;;5051363;28;19965;-65
2023/05/01 12:25:15;;;;;;;;;;;20.30;90.10;;;;;;5053539;28;19991;-65
2023/05/01 12:27:44;;;;;;;;;;;20.50;88.20;;;;;;5047172;28;19975;-65
2023/05/01 12:30:10;;;;;;;;;;;20.50;91.30;;;;;;5054573;28;20128;-65
2023/05/01 12:32:35;;;;;;;;;;;20.40;91.10;;;;;;5051537;28;19921;-65
2023/05/01 12:35:10;;;;;;;;;;;20.40;89.10;;;;;;5035001;28;20071;-66
2023/05/01 12:37:36;;;;;;;;;;;20.50;88.50;;;;;;5053005;28;19927;-66
2023/05/01 12:40:03;;;;;;;;;;;20.60;90.20;;;;;;5053064;28;19925;-66
2023/05/01 12:42:28;;;;;;;;;;;20.80;82.70;;;;;;5051385;28;19944;-66
2023/05/01 12:44:58;;;;;;;;;;;20.80;88.20;;;;;;5052599;28;20290;-67
2023/05/01 12:47:25;;;;;;;;;;;20.70;84.90;;;;;;5050664;28;20299;-67
2023/05/01 12:49:59;;;;;;;;;;;20.60;91.10;;;;;;5055930;28;19925;-66
2023/05/01 12:52:26;;;;;;;;;;;20.70;88.80;;;;;;5057834;28;19920;-68
2023/05/01 12:55:00;;;;;;;;;;;20.60;87.40;;;;;;5056172;28;19929;-65
2023/05/01 12:57:25;;;;;;;;;;;20.80;90.00;;;;;;5052721;28;19967;-65
2023/05/01 12:59:57;;;;;;;;;;;20.70;87.80;;;;;;5053306;28;19925;-65
2023/05/01 13:02:28;;;;;;;;;;;20.90;86.30;;;;;;5052259;28;19921;-68
2023/05/01 13:05:03;;;;;;;;;;;20.80;87.60;;;;;;5058147;28;19920;-67
2023/05/01 13:07:29;;;;;;;;;;;20.90;88.00;;;;;;5052521;28;19924;-67
2023/05/01 13:09:56;;;;;;;;;;;20.80;90.80;;;;;;5034130;28;19976;-67
2023/05/01 13:12:22;;;;;;;;;;;20.70;88.70;;;;;;5052482;28;19920;-68
2023/05/01 13:14:47;;;;;;;;;;;20.90;87.80;;;;;;5055656;28;19921;-67
2023/05/01 13:17:20;;;;;;;;;;;21.10;89.70;;;;;;5064748;28;20338;-66
2023/05/01 13:19:51;;;;;;;;;;;21.20;87.30;;;;;;5052753;28;19928;-67
2023/05/01 13:22:17;;;;;;;;;;;21.40;90.00;;;;;;5057407;28;19931;-66
2023/05/01 13:24:43;;;;;;;;;;;21.30;87.50;;;;;;5052597;28;19925;-68
2023/05/01 13:27:10;;;;;;;;;;;21.00;83.90;;;;;;5052479;28;20327;-66
2023/05/01 13:29:35;;;;;;;;;;;21.00;84.60;;;;;;5035160;28;19979;-68
2023/05/01 13:32:02;;;;;;;;;;;21.00;84.80;;;;;;5051471;28;20395;-66
2023/05/01 13:34:29;;;;;;;;;;;20.90;79.30;;;;;;5052521;28;19943;-68
2023/05/01 13:36:55;;;;;;;;;;;21.10;81.50;;;;;;5049925;28;19925;-67
2023/05/01 13:39:21;;;;;;;;;;;21.30;82.40;;;;;;5051351;28;19928;-68
2023/05/01 13:41:47;;;;;;;;;;;20.80;81.10;;;;;;5034490;28;19925;-68
2023/05/01 13:44:13;;;;;;;;;;;20.60;77.00;;;;;;5034448;28;19920;-65
2023/05/01 13:46:41;;;;;;;;;;;20.50;77.60;;;;;;5049938;28;19928;-66
2023/05/01 13:49:07;;;;;;;;;;;20.60;78.60;;;;;;5037023;28;19921;-65
2023/05/01 13:51:35;;;;;;;;;;;20.70;81.80;;;;;;5052426;28;19924;-66
2023/05/01 13:54:02;;;;;;;;;;;20.70;79.90;;;;;;5062636;28;19920;-66
2023/05/01 13:56:27;;;;;;;;;;;20.50;77.10;;;;;;5041949;28;19971;-65
2023/05/01 13:58:53;;;;;;;;;;;20.80;74.50;;;;;;5051778;28;19921;-65
2023/05/01 14:01:21;;;;;;;;;;;21.20;84.10;;;;;;5051150;28;21311;-66
2023/05/01 14:03:47;;;;;;;;;;;20.80;79.80;;;;;;5056333;28;19964;-67
2023/05/01 14:06:13;;;;;;;;;;;20.30;79.20;;;;;;5051677;28;19921;-67
2023/05/01 14:08:39;;;;;;;;;;;20.00;85.20;;;;;;5051863;28;20007;-68
2023/05/01 14:11:05;;;;;;;;;;;19.80;85.90;;;;;;5037965;28;20012;-67
2023/05/01 14:13:32;;;;;;;;;;;19.40;82.20;;;;;;5051658;28;19921;-68
2023/05/01 14:15:58;;;;;;;;;;;19.20;85.30;;;;;;5033457;28;19970;-68
2023/05/01 14:18:23;;;;;;;;;;;19.20;88.40;;;;;;5033965;28;19925;-67
2023/05/01 14:20:49;;;;;;;;;;;19.10;89.10;;;;;;5048947;28;19958;-67